Etusivu
METAR-TAF:

METAR-TAF

Lentoasemat :

Kemi-Tornion lentoasema

Kemi, Suomi

Leveyspiiri: 65-47N, Pituuspiiri: 024-35E, korkeus merenpinnasta: 15 m

Tämänhetkinen sää

Tämä raportti tehtiin 20 minuuttia sitten, kello 16.20 UTC
Tuuli 2 kn pohjoisesta/koillisesta
Lämpötila -5°C
Kosteus 93%
Ilmanpaine 1031 hPa
Näkyvyys 10 km tai enemmän
Pilvistä 500 ft:n korkeudessa

METAR: EFKE 141620Z 03002KT 9999 OVC005 M05/M06 Q1031

Aika: 18:40 (16:40 UTC)

Sääennuste

Tämä raportti tehtiin 2 tuntia ja 3 minuuttia sitten, kello 14.37 UTC
Ennuste voimassa 14. päivästä klo 15 UTC - 14. päivään klo 24 UTC
Tuuli 4 kn lännestä/lounaasta
Näkyvyys 10 km tai enemmän
Pilvistä 600 ft:n korkeudessa
Ajoittain
14. päivästä klo 15 UTC - 14. päivään klo 24 UTC
Näkyvyys: 4000 m
Hajonneita pilviä 400 ft:n korkeudessa
(heikkoa) lumijyväsiä

TAF: EFKE 141437Z 1415/1424 24004KT 9999 OVC006 TEMPO 1415/1424 4000 -SG BKN004

Säähavainnot ja -ennusteet yli 4000 lentoasemalta (METAR- ja TAF-raportit).

Käytössä olevat sääasemat on merkitty karttaan keltaisilla ja punaisilla pisteillä.

Aseta hiiri pisteen päälle nähdäksesi sääaseman nimen.

Klikkaa sitten nähdäksesi säähavainnot ja -ennusteet.

Kartan vaihtaminen: klikkaa mustalla rastilla varustettuja vihreitä pisteitä, niin voit zoomata sisään; viivalla varustettua vihreää pistettä, niin voit zoomata ulos tai vihreitä nuolia, niin pääset viereisille kartoille.


METAR-TAF: